Time;durP1;ratioP1;P1;durP2;ratioP2;P2;SDS_P1;SDS_P2;PMS_P1;PMS_P2;Temp;Humidity;BMP_temperature;BMP_pressure;BME280_temperature;BME280_humidity;BME280_pressure;Samples;Min_cycle;Max_cycle;Signal;HPM_P1;HPM_P2
2022/11/01 00:02:25;;;;;;;10.82;4.20;;;;;;;17.12;100.00;100795.94;5203105;28;20112;-75
2022/11/01 00:04:56;;;;;;;10.38;4.63;;;;;;;17.07;100.00;100794.72;5203390;28;20025;-76
2022/11/01 00:07:26;;;;;;;14.93;4.72;;;;;;;17.18;100.00;100779.69;5202408;28;20196;-75
2022/11/01 00:09:57;;;;;;;11.52;4.63;;;;;;;17.19;100.00;100775.09;5203139;28;20376;-75
2022/11/01 00:12:29;;;;;;;13.43;4.57;;;;;;;17.15;100.00;100769.25;5202517;28;20061;-75
2022/11/01 00:15:00;;;;;;;11.00;4.15;;;;;;;17.13;100.00;100792.19;5203251;28;20080;-75
2022/11/01 00:17:30;;;;;;;9.77;4.18;;;;;;;17.15;100.00;100782.81;5206455;28;20029;-76
2022/11/01 00:20:01;;;;;;;14.75;4.90;;;;;;;17.17;100.00;100779.88;5206950;28;20027;-76
2022/11/01 00:22:31;;;;;;;17.70;5.63;;;;;;;17.15;100.00;100777.38;5206604;28;20033;-75
2022/11/01 00:25:02;;;;;;;10.90;4.55;;;;;;;17.10;100.00;100774.47;5205986;28;20061;-77
2022/11/01 00:27:32;;;;;;;13.95;5.93;;;;;;;17.10;100.00;100766.34;5206304;28;20037;-76
2022/11/01 00:30:03;;;;;;;15.90;4.78;;;;;;;17.10;100.00;100766.34;5206844;28;20381;-76
2022/11/01 00:32:34;;;;;;;8.88;4.53;;;;;;;17.08;100.00;100757.59;5203881;28;20033;-76
2022/11/01 00:35:05;;;;;;;17.88;5.25;;;;;;;17.05;100.00;100763.44;5205745;28;20021;-76
2022/11/01 00:37:35;;;;;;;13.57;5.47;;;;;;;16.99;100.00;100761.56;5205976;28;20485;-75
2022/11/01 00:40:06;;;;;;;9.82;4.85;;;;;;;17.06;100.00;100768.63;5206893;28;20025;-74
2022/11/01 00:42:36;;;;;;;10.18;4.10;;;;;;;17.07;100.00;100773.03;5206538;28;20108;-74
2022/11/01 00:45:07;;;;;;;10.07;4.53;;;;;;;17.11;100.00;100769.88;5204613;28;20063;-74
2022/11/01 00:47:38;;;;;;;13.10;4.93;;;;;;;17.14;100.00;100770.28;5206070;28;20033;-74
2022/11/01 00:50:08;;;;;;;11.55;5.78;;;;;;;17.09;100.00;100764.69;5194327;28;20132;-75
2022/11/01 00:52:39;;;;;;;17.45;5.22;;;;;;;17.09;100.00;100762.78;5205169;28;20021;-75
2022/11/01 00:55:09;;;;;;;14.45;5.50;;;;;;;17.10;100.00;100774.47;5187031;28;20022;-75
2022/11/01 00:57:40;;;;;;;13.63;4.65;;;;;;;17.10;100.00;100779.88;5187035;28;20033;-75
2022/11/01 01:00:13;;;;;;;11.88;4.70;;;;;;;17.15;100.00;100768.41;5186896;28;20385;-75
2022/11/01 01:02:43;;;;;;;16.88;4.95;;;;;;;17.16;100.00;100775.50;5186798;28;20109;-75
2022/11/01 01:05:14;;;;;;;13.68;5.03;;;;;;;17.18;100.00;100773.44;5197922;28;20029;-76
2022/11/01 01:07:44;;;;;;;12.02;5.10;;;;;;;17.23;100.00;100777.16;5186588;28;20018;-76
2022/11/01 01:10:15;;;;;;;15.52;5.32;;;;;;;17.25;100.00;100766.94;5187410;28;20037;-76
2022/11/01 01:12:45;;;;;;;15.65;4.95;;;;;;;17.25;100.00;100772.34;5187427;28;20026;-75
2022/11/01 01:15:16;;;;;;;8.93;4.57;;;;;;;17.28;100.00;100790.09;5200106;28;20021;-75
2022/11/01 01:17:47;;;;;;;11.77;4.38;;;;;;;17.33;100.00;100777.56;5195000;28;20056;-75
2022/11/01 01:20:19;;;;;;;14.00;5.10;;;;;;;17.34;100.00;100775.69;5203927;28;20025;-76
2022/11/01 01:22:49;;;;;;;11.50;4.65;;;;;;;17.30;100.00;100777.97;5195741;28;20030;-74
2022/11/01 01:25:21;;;;;;;14.32;4.30;;;;;;;17.31;100.00;100771.50;5203942;28;20028;-75
2022/11/01 01:27:51;;;;;;;9.40;4.30;;;;;;;17.33;100.00;100779.44;5203130;28;20060;-76
2022/11/01 01:30:22;;;;;;;11.38;4.82;;;;;;;17.35;100.00;100780.88;5205657;28;20109;-75
2022/11/01 01:32:53;;;;;;;12.02;4.85;;;;;;;17.36;100.00;100784.41;5202645;28;20036;-76
2022/11/01 01:35:23;;;;;;;10.15;3.83;;;;;;;17.42;100.00;100793.56;5205545;28;20452;-76
2022/11/01 01:37:53;;;;;;;12.18;3.88;;;;;;;17.42;100.00;100785.44;5204492;28;20025;-77
2022/11/01 01:40:24;;;;;;;11.70;4.72;;;;;;;17.43;100.00;100787.13;5205622;28;20155;-76
2022/11/01 01:42:54;;;;;;;10.07;3.67;;;;;;;17.38;100.00;100785.06;5205556;28;20026;-76
2022/11/01 01:45:28;;;;;;;12.32;3.72;;;;;;;17.36;100.00;100789.84;5205126;28;20014;-76
2022/11/01 01:48:23;;;;;;;13.80;4.00;;;;;;;17.39;100.00;100792.16;5204432;28;20044;-76
2022/11/01 01:50:58;;;;;;;12.60;3.03;;;;;;;17.39;100.00;100794.03;5205118;28;20036;-76
2022/11/01 01:53:30;;;;;;;;;;;;;;;17.38;100.00;100792.38;5205778;28;20025;-76
2022/11/01 01:56:03;;;;;;;7.10;2.92;;;;;;;17.37;100.00;100788.81;5205279;28;19958;-76
2022/11/01 01:58:48;;;;;;;7.38;2.38;;;;;;;17.29;100.00;100803.44;5204448;28;20394;-76
2022/11/01 02:01:19;;;;;;;10.32;2.40;;;;;;;17.28;100.00;100793.63;5205226;28;20391;-77
2022/11/01 02:03:50;;;;;;;8.30;2.72;;;;;;;17.25;100.00;100796.75;5205691;28;20092;-76
2022/11/01 02:06:22;;;;;;;6.80;2.53;;;;;;;17.14;100.00;100820.97;5205384;28;20481;-76
2022/11/01 02:08:57;;;;;;;6.07;3.00;;;;;;;17.07;100.00;100818.28;5189533;28;20029;-76
2022/11/01 02:11:27;;;;;;;7.60;2.92;;;;;;;17.00;100.00;100807.41;5184642;28;20089;-76
2022/11/01 02:13:59;;;;;;;7.38;2.42;;;;;;;16.98;100.00;100822.22;5197984;28;20029;-76
2022/11/01 02:17:22;;;;;;;7.07;2.58;;;;;;;16.94;100.00;100831.81;5196948;28;20021;-77
2022/11/01 02:20:03;;;;;;;5.13;2.15;;;;;;;16.99;100.00;100832.03;5181552;28;20067;-77
2022/11/01 02:22:59;;;;;;;7.88;2.42;;;;;;;16.95;100.00;100836.19;5184789;28;20084;-77
2022/11/01 02:25:58;;;;;;;5.45;1.80;;;;;;;16.92;100.00;100847.44;5196060;28;20036;-75
2022/11/01 02:28:56;;;;;;;10.65;2.70;;;;;;;16.83;100.00;100855.78;5203915;28;20455;-75
2022/11/01 02:31:51;;;;;;;5.47;1.90;;;;;;;16.74;100.00;100856.19;5201206;28;20038;-74
2022/11/01 02:34:32;;;;;;;7.00;2.03;;;;;;;16.65;100.00;100866.34;5204194;28;20029;-74
2022/11/01 02:37:31;;;;;;;4.15;1.90;;;;;;;16.57;100.00;100869.25;5204238;28;20091;-74
2022/11/01 02:40:13;;;;;;;5.15;1.65;;;;;;;16.51;100.00;100875.47;5204462;28;20468;-75
2022/11/01 02:42:50;;;;;;;6.50;1.40;;;;;;;16.37;100.00;100871.91;5203933;28;20035;-75
2022/11/01 02:45:56;;;;;;;7.28;1.50;;;;;;;16.29;100.00;100874.78;5204548;28;20510;-75
2022/11/01 02:48:27;;;;;;;4.78;1.40;;;;;;;16.21;100.00;100896.59;5178861;28;20140;-75
2022/11/01 02:50:58;;;;;;;6.85;1.33;;;;;;;16.13;100.00;100886.81;5203640;28;20373;-75
2022/11/01 02:53:29;;;;;;;2.92;1.15;;;;;;;16.00;100.00;100911.09;5204031;28;20025;-75
2022/11/01 02:55:59;;;;;;;3.45;0.85;;;;;;;15.97;100.00;100906.94;5203975;28;20070;-75
2022/11/01 02:58:30;;;;;;;3.22;0.73;;;;;;;15.91;100.00;100909.56;5203406;28;20167;-76
2022/11/01 03:01:01;;;;;;;3.42;1.02;;;;;;;15.80;100.00;100910.97;5203793;28;20429;-76
2022/11/01 03:03:34;;;;;;;2.22;0.60;;;;;;;15.69;100.00;100916.94;5203376;28;20129;-75
2022/11/01 03:06:12;;;;;;;3.70;0.90;;;;;;;15.69;100.00;100919.66;5203828;28;20056;-75
2022/11/01 03:08:53;;;;;;;3.00;0.70;;;;;;;15.53;100.00;100924.28;5202890;28;20033;-75
2022/11/01 03:11:35;;;;;;;3.25;0.70;;;;;;;15.36;100.00;100922.94;5202644;28;20432;-75
2022/11/01 03:14:32;;;;;;;4.07;1.00;;;;;;;15.27;100.00;100937.59;5203341;28;20021;-75
2022/11/01 03:17:11;;;;;;;3.72;0.80;;;;;;;15.15;100.00;100937.28;5202817;28;20065;-76
2022/11/01 03:19:57;;;;;;;2.20;0.70;;;;;;;15.05;100.00;100930.53;5203550;28;20541;-76
2022/11/01 03:22:30;;;;;;;2.72;0.63;;;;;;;14.94;100.00;100938.13;5203837;28;20504;-76
2022/11/01 03:28:16;;;;;;;2.88;1.15;;;;;;;14.87;100.00;100942.63;5202710;28;20134;-75
2022/11/01 03:31:00;;;;;;;2.05;0.90;;;;;;;14.84;100.00;100944.88;5203284;28;20032;-75
2022/11/01 03:33:34;;;;;;;7.63;1.02;;;;;;;14.85;100.00;100950.06;5203004;28;20022;-77
2022/11/01 03:36:11;;;;;;;7.05;0.80;;;;;;;14.77;100.00;100961.00;5203571;28;20048;-76
2022/11/01 03:38:51;;;;;;;3.42;0.90;;;;;;;14.70;100.00;100974.41;5202687;28;20022;-76
2022/11/01 03:41:23;;;;;;;11.57;1.58;;;;;;;14.61;100.00;100986.38;5203336;28;20040;-75
2022/11/01 03:43:54;;;;;;;4.75;0.82;;;;;;;14.55;100.00;100976.31;5203413;28;20036;-76
2022/11/01 03:46:25;;;;;;;6.32;1.00;;;;;;;14.53;100.00;100988.34;5202824;28;20067;-75
2022/11/01 03:48:55;;;;;;;5.25;0.77;;;;;;;14.56;100.00;100987.94;5202579;28;20049;-75
2022/11/01 03:51:26;;;;;;;2.17;0.50;;;;;;;14.54;100.00;100988.16;5207188;28;20036;-76
2022/11/01 03:53:56;;;;;;;5.70;0.90;;;;;;;14.53;100.00;100996.44;5209969;28;20681;-76
2022/11/01 03:56:27;;;;;;;5.45;0.80;;;;;;;14.46;100.00;101002.56;5209932;28;20493;-76
2022/11/01 03:58:57;;;;;;;1.60;0.98;;;;;;;14.42;100.00;100995.88;5209244;28;20380;-76
2022/11/01 04:01:29;;;;;;;3.05;0.77;;;;;;;14.38;100.00;101008.06;5209927;28;20531;-76
2022/11/01 04:03:59;;;;;;;2.67;0.60;;;;;;;14.37;100.00;101006.38;5209820;28;20033;-76
2022/11/01 04:06:30;;;;;;;4.43;0.85;;;;;;;14.33;100.00;101012.34;5209810;28;20029;-76
2022/11/01 04:09:00;;;;;;;4.60;0.95;;;;;;;14.37;100.00;101017.19;5209329;28;20021;-75
2022/11/01 04:11:31;;;;;;;4.43;0.77;;;;;;;14.38;100.00;101026.94;5210441;28;20022;-75
2022/11/01 04:22:48;;;;;;;7.10;1.17;;;;;;;14.27;100.00;101072.47;5186606;28;20030;-76
2022/11/01 04:25:19;;;;;;;3.67;1.23;;;;;;;14.21;100.00;101087.53;5198076;28;20048;-75
2022/11/01 04:27:49;;;;;;;3.65;0.90;;;;;;;14.22;100.00;101086.50;5208991;28;20084;-75
2022/11/01 04:30:19;;;;;;;7.28;1.10;;;;;;;14.18;100.00;101099.53;5210081;28;20017;-75
2022/11/01 04:32:50;;;;;;;4.20;0.98;;;;;;;14.11;100.00;101104.00;5206296;28;20025;-76
2022/11/01 04:35:21;;;;;;;5.72;1.27;;;;;;;14.07;100.00;101107.22;5209594;28;20096;-76
2022/11/01 04:37:57;;;;;;;3.97;0.75;;;;;;;14.06;100.00;101117.19;5207767;28;20056;-76
2022/11/01 04:40:27;;;;;;;6.07;0.82;;;;;;;14.04;100.00;101134.56;5209695;28;20041;-76
2022/11/01 04:42:58;;;;;;;6.70;0.90;;;;;;;14.03;100.00;101127.50;5209852;28;20071;-76
2022/11/01 04:45:28;;;;;;;3.45;0.60;;;;;;;13.99;100.00;101133.25;5208885;28;20057;-76
2022/11/01 04:48:06;;;;;;;5.40;0.93;;;;;;;13.96;100.00;101130.09;5209022;28;20032;-75
2022/11/01 04:50:36;;;;;;;10.52;0.82;;;;;;;13.87;100.00;101129.31;5209524;28;20033;-75
2022/11/01 04:53:08;;;;;;;5.15;1.30;;;;;;;13.80;100.00;101138.28;5209501;28;20022;-75
2022/11/01 04:55:38;;;;;;;6.82;0.95;;;;;;;13.73;100.00;101147.09;5209237;28;20167;-75
2022/11/01 04:58:09;;;;;;;6.75;1.48;;;;;;;13.65;100.00;101166.03;5208369;28;20025;-76
2022/11/01 05:00:42;;;;;;;2.70;0.77;;;;;;;13.60;100.00;101149.53;5209321;28;20435;-75
2022/11/01 05:03:13;;;;;;;6.82;1.60;;;;;;;13.51;100.00;101144.41;5205700;28;20536;-75
2022/11/01 05:05:43;;;;;;;8.13;1.23;;;;;;;13.48;100.00;101141.03;5205817;28;20056;-75
2022/11/01 05:08:14;;;;;;;7.32;1.30;;;;;;;13.44;100.00;101149.66;5205457;28;20104;-75
2022/11/01 05:10:44;;;;;;;3.92;1.00;;;;;;;13.42;100.00;101168.69;5205934;28;20033;-75
2022/11/01 05:13:15;;;;;;;7.40;1.25;;;;;;;13.39;100.00;101166.34;5206086;28;20366;-75
2022/11/01 05:15:45;;;;;;;6.63;0.90;;;;;;;13.29;100.00;101163.03;5205863;28;20479;-75
2022/11/01 05:18:16;;;;;;;7.70;1.10;;;;;;;13.19;100.00;101175.84;5205677;28;20026;-75
2022/11/01 05:20:46;;;;;;;6.20;1.27;;;;;;;13.16;100.00;101184.31;5198715;28;20083;-75
2022/11/01 05:23:17;;;;;;;7.03;1.00;;;;;;;13.11;100.00;101200.97;5187881;28;20026;-75
2022/11/01 05:25:48;;;;;;;3.38;0.90;;;;;;;13.08;100.00;101190.53;5206526;28;20552;-75
2022/11/01 05:28:18;;;;;;;11.02;1.13;;;;;;;13.06;100.00;101197.97;5206197;28;20040;-75
2022/11/01 05:30:49;;;;;;;3.90;0.70;;;;;;;12.98;100.00;101207.94;5205651;28;20473;-76
2022/11/01 05:33:19;;;;;;;4.10;1.80;;;;;;;12.89;100.00;101207.09;5199192;28;20469;-75
2022/11/01 05:35:49;;;;;;;9.48;1.35;;;;;;;12.91;100.00;101197.03;5196279;28;20053;-75
2022/11/01 05:38:20;;;;;;;9.70;1.13;;;;;;;12.88;100.00;101213.50;5186864;28;20026;-75
2022/11/01 05:40:50;;;;;;;5.85;1.08;;;;;;;12.86;100.00;101218.22;5185390;28;20026;-75
2022/11/01 05:43:21;;;;;;;9.55;1.38;;;;;;;12.89;100.00;101225.94;5186059;28;20026;-74
2022/11/01 05:45:51;;;;;;;8.43;0.90;;;;;;;12.85;100.00;101227.31;5195495;28;20025;-74
2022/11/01 05:48:22;;;;;;;6.68;0.95;;;;;;;12.77;100.00;101230.88;5197619;28;20453;-74
2022/11/01 05:50:52;;;;;;;8.15;2.03;;;;;;;12.72;100.00;101227.00;5185789;28;20510;-75
2022/11/01 05:53:23;;;;;;;7.97;1.23;;;;;;;12.68;100.00;101232.72;5185502;28;20103;-74
2022/11/01 05:55:57;;;;;;;2.78;0.82;;;;;;;12.68;100.00;101234.56;5185781;28;20142;-74
2022/11/01 05:58:28;;;;;;;8.77;1.60;;;;;;;12.70;100.00;101249.56;5183990;28;20038;-74
2022/11/01 06:01:00;;;;;;;8.95;1.25;;;;;;;12.64;100.00;101244.84;5185524;28;20026;-74
2022/11/01 06:03:32;;;;;;;10.80;1.25;;;;;;;12.57;100.00;101259.16;5184634;28;20033;-74
2022/11/01 06:06:03;;;;;;;14.02;1.23;;;;;;;12.53;100.00;101263.19;5185355;28;20362;-75
2022/11/01 06:08:33;;;;;;;6.38;1.85;;;;;;;12.58;100.00;101258.16;5185240;28;20037;-75
2022/11/01 06:11:05;;;;;;;7.32;1.30;;;;;;;12.49;100.00;101262.69;5184859;28;20381;-74
2022/11/01 06:13:35;;;;;;;7.30;1.40;;;;;;;12.45;100.00;101258.66;5197794;28;20033;-74
2022/11/01 06:16:06;;;;;;;10.68;1.92;;;;;;;12.44;100.00;101263.19;5184729;28;20018;-75
2022/11/01 06:18:37;;;;;;;13.35;1.73;;;;;;;12.39;100.00;101260.16;5187269;28;20503;-74
2022/11/01 06:21:07;;;;;;;9.13;1.80;;;;;;;12.36;100.00;101275.81;5204729;28;20029;-74
2022/11/01 06:23:38;;;;;;;9.38;1.45;;;;;;;12.31;100.00;101262.88;5188115;28;20345;-74
2022/11/01 06:26:08;;;;;;;8.20;1.48;;;;;;;12.28;100.00;101267.72;5200665;28;20106;-74
2022/11/01 06:28:39;;;;;;;9.32;1.23;;;;;;;12.23;100.00;101267.38;5185509;28;20076;-75
2022/11/01 06:31:09;;;;;;;11.20;2.10;;;;;;;12.15;100.00;101281.69;5188921;28;20488;-75
2022/11/01 06:33:40;;;;;;;9.00;1.77;;;;;;;12.12;100.00;101288.22;5184998;28;20079;-75
2022/11/01 06:36:10;;;;;;;8.40;1.40;;;;;;;12.05;100.00;101287.22;5184526;28;20014;-74
2022/11/01 06:38:40;;;;;;;7.00;1.50;;;;;;;12.00;100.00;101291.38;5184562;28;20041;-74
2022/11/01 06:41:11;;;;;;;17.88;1.80;;;;;;;11.95;100.00;101294.59;5185064;28;20022;-74
2022/11/01 06:43:41;;;;;;;9.73;1.90;;;;;;;11.89;100.00;101298.75;5184596;28;20389;-75
2022/11/01 06:46:12;;;;;;;14.20;1.95;;;;;;;11.88;100.00;101309.66;5197317;28;20052;-73
2022/11/01 06:48:42;;;;;;;12.73;1.63;;;;;;;11.84;100.00;101295.72;5194517;28;20445;-73
2022/11/01 06:51:13;;;;;;;7.82;1.80;;;;;;;11.81;100.00;101308.63;5185404;28;20116;-73
2022/11/01 06:53:43;;;;;;;13.48;2.78;;;;;;;11.75;100.00;101309.28;5194503;28;20029;-72
2022/11/01 06:56:14;;;;;;;11.88;2.15;;;;;;;11.67;100.00;101315.44;5188281;28;20473;-73
2022/11/01 06:58:48;;;;;;;9.50;1.77;;;;;;;11.68;100.00;101323.34;5183899;28;20461;-73
2022/11/01 07:01:20;;;;;;;10.63;1.73;;;;;;;11.74;100.00;101326.38;5185268;28;20029;-73
2022/11/01 07:03:51;;;;;;;9.77;1.40;;;;;;;11.80;100.00;101306.94;5196694;28;20029;-73
2022/11/01 07:06:23;;;;;;;5.97;1.38;;;;;;;11.85;100.00;101329.69;5184181;28;20022;-73
2022/11/01 07:08:54;;;;;;;13.45;2.15;;;;;;;11.86;100.00;101335.88;5185478;28;20029;-73
2022/11/01 07:11:25;;;;;;;9.73;1.90;;;;;;;11.88;100.00;101337.41;5195071;28;20485;-73
2022/11/01 07:13:56;;;;;;;10.40;1.50;;;;;;;11.85;100.00;101353.03;5190546;28;20112;-73
2022/11/01 07:16:27;;;;;;;9.82;1.90;;;;;;;11.90;100.00;101350.69;5182679;28;20109;-73
2022/11/01 07:18:57;;;;;;;23.15;2.60;;;;;;;11.89;100.00;101355.19;5187174;28;20026;-73
2022/11/01 07:21:28;;;;;;;18.85;2.00;;;;;;;11.91;100.00;101372.03;5201717;28;20029;-73
2022/11/01 07:23:58;;;;;;;13.40;1.98;;;;;;;11.96;100.00;101368.88;5184700;28;20060;-73
2022/11/01 07:26:29;;;;;;;13.93;1.80;;;;;;;12.07;100.00;101373.94;5200646;28;20021;-73
2022/11/01 07:28:59;;;;;;;7.93;1.48;;;;;;;12.16;100.00;101369.44;5201806;28;20690;-73
2022/11/01 07:31:32;;;;;;;12.73;1.77;;;;;;;12.33;100.00;101375.69;5198139;28;20079;-73
2022/11/01 07:34:02;;;;;;;14.77;2.50;;;;;;;12.51;100.00;101380.94;5202086;28;20060;-73
2022/11/01 07:36:33;;;;;;;14.30;2.60;;;;;;;12.67;100.00;101384.50;5201596;28;20060;-73
2022/11/01 07:39:03;;;;;;;15.32;2.10;;;;;;;12.78;100.00;101379.78;5201853;28;20029;-73
2022/11/01 07:41:34;;;;;;;8.00;2.00;;;;;;;12.84;100.00;101390.72;5201923;28;20025;-73
2022/11/01 07:44:04;;;;;;;12.10;2.08;;;;;;;13.16;100.00;101389.88;5201861;28;20511;-74
2022/11/01 07:46:35;;;;;;;14.95;2.40;;;;;;;13.44;100.00;101393.06;5190708;28;20370;-74
2022/11/01 07:49:05;;;;;;;8.30;1.90;;;;;;;13.31;100.00;101397.31;5202408;28;20052;-73
2022/11/01 07:51:36;;;;;;;11.95;1.50;;;;;;;13.65;100.00;101400.56;5202912;28;20021;-73
2022/11/01 07:54:06;;;;;;;16.25;2.22;;;;;;;13.52;100.00;101408.38;5198866;28;20064;-74
2022/11/01 07:56:37;;;;;;;12.40;1.88;;;;;;;13.62;100.00;101400.94;5198685;28;20044;-73
2022/11/01 07:59:08;;;;;;;10.40;2.17;;;;;;;13.69;100.00;101411.88;5201565;28;20502;-73
2022/11/01 08:01:38;;;;;;;15.38;2.58;;;;;;;13.96;100.00;101414.16;5202318;28;20028;-71
2022/11/01 08:04:08;;;;;;;11.63;1.50;;;;;;;14.06;100.00;101413.94;5202197;28;20075;-74
2022/11/01 08:06:39;;;;;;;18.42;2.28;;;;;;;14.30;100.00;101423.75;5201787;28;20030;-74
2022/11/01 08:09:10;;;;;;;9.27;2.08;;;;;;;14.23;100.00;101420.09;5202227;28;20024;-74
2022/11/01 08:11:40;;;;;;;14.70;2.30;;;;;;;13.97;100.00;101421.22;5200418;28;20092;-74
2022/11/01 08:14:11;;;;;;;11.23;1.92;;;;;;;14.17;100.00;101418.94;5201813;28;20022;-74
2022/11/01 08:16:41;;;;;;;13.52;2.10;;;;;;;14.41;100.00;101431.47;5201892;28;20025;-74
2022/11/01 08:19:12;;;;;;;9.77;2.50;;;;;;;14.61;100.00;101444.53;5202011;28;20025;-74
2022/11/01 08:21:42;;;;;;;9.15;2.75;;;;;;;14.61;100.00;101445.41;5201959;28;20061;-74
2022/11/01 08:24:13;;;;;;;19.25;3.08;;;;;;;14.28;100.00;101444.69;5201831;28;20036;-74
2022/11/01 08:26:43;;;;;;;14.80;2.35;;;;;;;14.09;100.00;101440.56;5201473;28;20037;-74
2022/11/01 08:29:14;;;;;;;10.52;2.00;;;;;;;14.32;100.00;101440.63;5202303;28;20425;-75
2022/11/01 08:31:45;;;;;;;8.63;1.60;;;;;;;14.65;100.00;101443.16;5194978;28;20029;-75
2022/11/01 08:34:16;;;;;;;11.80;2.08;;;;;;;14.77;100.00;101453.38;5192652;28;20103;-74
2022/11/01 08:36:46;;;;;;;16.90;3.03;;;;;;;14.83;100.00;101451.00;5202178;28;20120;-75
2022/11/01 08:39:17;;;;;;;12.02;2.08;;;;;;;15.20;100.00;101451.03;5205631;28;20033;-74
2022/11/01 08:41:48;;;;;;;14.00;2.15;;;;;;;15.11;100.00;101452.13;5205823;28;20030;-74
2022/11/01 08:44:19;;;;;;;15.48;2.25;;;;;;;15.61;100.00;101456.06;5205811;28;20420;-74
2022/11/01 08:46:52;;;;;;;17.15;2.80;;;;;;;15.53;100.00;101451.56;5205272;28;20040;-75
2022/11/01 08:49:23;;;;;;;11.27;2.42;;;;;;;16.17;100.00;101461.91;5205665;28;20025;-75
2022/11/01 08:51:54;;;;;;;23.23;2.83;;;;;;;15.48;100.00;101472.91;5205705;28;20027;-74
2022/11/01 08:54:25;;;;;;;12.05;2.13;;;;;;;16.16;100.00;101457.50;5205179;28;20029;-75
2022/11/01 08:56:55;;;;;;;17.73;2.53;;;;;;;16.01;100.00;101459.38;5205203;28;20619;-75
2022/11/01 08:59:26;;;;;;;17.77;2.25;;;;;;;15.50;100.00;101462.75;5205279;28;20029;-75
2022/11/01 09:01:56;;;;;;;12.68;2.45;;;;;;;15.73;100.00;101462.72;5205075;28;20519;-75
2022/11/01 09:04:27;;;;;;;15.75;2.22;;;;;;;16.32;100.00;101478.13;5205052;28;20040;-75
2022/11/01 09:06:57;;;;;;;19.40;2.40;;;;;;;15.85;100.00;101471.22;5204899;28;20489;-74
2022/11/01 09:09:28;;;;;;;9.98;1.60;;;;;;;16.27;100.00;101467.88;5205396;28;20504;-74
2022/11/01 09:11:59;;;;;;;16.58;1.98;;;;;;;16.42;100.00;101473.25;5203710;28;20064;-74
2022/11/01 09:14:29;;;;;;;12.02;2.00;;;;;;;16.31;100.00;101468.31;5204992;28;20105;-74
2022/11/01 09:17:00;;;;;;;14.82;2.10;;;;;;;16.14;100.00;101464.13;5203456;28;20056;-74
2022/11/01 09:19:30;;;;;;;13.48;2.38;;;;;;;16.29;100.00;101457.69;5205088;28;20329;-74
2022/11/01 09:22:00;;;;;;;9.18;1.88;;;;;;;16.30;100.00;101472.88;5203796;28;20057;-74
2022/11/01 09:24:31;;;;;;;12.88;1.92;;;;;;;16.53;100.00;101477.34;5204104;28;20108;-74
2022/11/01 09:27:01;;;;;;;10.05;2.05;;;;;;;16.95;100.00;101475.75;5204941;28;20029;-74
2022/11/01 09:29:32;;;;;;;14.00;2.00;;;;;;;16.71;100.00;101485.03;5205338;28;20032;-74
2022/11/01 09:32:03;;;;;;;10.45;1.80;;;;;;;16.38;100.00;101482.78;5202259;28;20029;-74
2022/11/01 09:34:34;;;;;;;16.92;2.53;;;;;;;16.17;100.00;101491.69;5205510;28;20029;-74
2022/11/01 09:37:04;;;;;;;12.73;2.15;;;;;;;16.57;100.00;101495.75;5208487;28;20021;-74
2022/11/01 09:39:35;;;;;;;14.55;2.05;;;;;;;16.55;100.00;101496.94;5210060;28;20429;-74
2022/11/01 09:42:21;;;;;;;12.95;2.03;;;;;;;16.90;100.00;101506.13;5204946;28;21238;-74
2022/11/01 09:44:55;;;;;;;14.43;2.72;;;;;;;17.12;100.00;101501.59;5204231;28;20057;-74
2022/11/01 09:47:29;;;;;;;16.40;2.03;;;;;;;16.77;100.00;101500.59;5203347;28;20079;-74
2022/11/01 09:50:35;;;;;;;8.98;1.83;;;;;;;16.39;100.00;101511.53;5190977;28;20035;-74
2022/11/01 09:53:17;;;;;;;10.52;2.20;;;;;;;16.42;100.00;101499.50;5203799;28;20073;-74
2022/11/01 09:56:03;;;;;;;11.80;2.42;;;;;;;16.50;100.00;101496.69;5203932;28;20013;-74
2022/11/01 09:58:51;;;;;;;13.70;2.38;;;;;;;16.43;100.00;101498.47;5204023;28;20535;-74
2022/11/01 10:01:40;;;;;;;12.43;1.88;;;;;;;16.20;100.00;101501.28;5192045;28;20021;-74
2022/11/01 10:04:38;;;;;;;12.05;2.25;;;;;;;15.86;100.00;101497.25;5203141;28;20477;-74
2022/11/01 10:07:27;;;;;;;14.18;2.00;;;;;;;15.90;100.00;101503.13;5203852;28;20080;-74
2022/11/01 10:10:38;;;;;;;8.80;1.90;;;;;;;15.76;100.00;101511.06;5204183;28;20040;-74
2022/11/01 10:13:16;;;;;;;16.85;3.00;;;;;;;15.93;100.00;101509.03;5195451;28;20029;-74
2022/11/01 10:16:13;;;;;;;15.55;2.38;;;;;;;16.07;100.00;101506.53;5203929;28;20388;-74
2022/11/01 10:19:11;;;;;;;16.17;2.42;;;;;;;16.27;100.00;101513.91;5202925;28;20485;-74
2022/11/01 10:21:51;;;;;;;10.38;1.45;;;;;;;16.09;100.00;101515.28;5203800;28;20100;-74
2022/11/01 10:24:34;;;;;;;19.30;2.47;;;;;;;15.82;100.00;101531.13;5203516;28;20025;-74
2022/11/01 10:27:19;;;;;;;15.88;2.65;;;;;;;15.85;100.00;101528.03;5201225;28;20480;-75
2022/11/01 10:30:01;;;;;;;9.48;2.28;;;;;;;16.02;100.00;101517.91;5203201;28;20028;-74
2022/11/01 10:32:39;;;;;;;12.90;1.90;;;;;;;15.98;100.00;101530.97;5189968;28;20049;-74
2022/11/01 10:35:20;;;;;;;9.82;1.77;;;;;;;16.00;100.00;101523.47;5201377;28;20021;-75
2022/11/01 10:38:13;;;;;;;14.52;2.30;;;;;;;16.14;100.00;101527.22;5201191;28;20067;-74
2022/11/01 10:41:05;;;;;;;11.07;2.13;;;;;;;16.30;100.00;101518.91;5203495;28;20404;-74
2022/11/01 10:43:46;;;;;;;13.25;1.88;;;;;;;16.28;100.00;101529.09;5190968;28;20021;-74
2022/11/01 10:46:21;;;;;;;12.18;1.98;;;;;;;16.13;100.00;101536.38;5202590;28;20029;-74
2022/11/01 10:49:00;;;;;;;;;;;;;;;16.03;100.00;101531.25;5202953;28;20087;-74
2022/11/01 10:51:33;;;;;;;9.43;1.85;;;;;;;16.13;100.00;101530.97;5202958;28;19909;-74
2022/11/01 10:54:11;;;;;;;13.75;1.73;;;;;;;16.21;100.00;101527.31;5201019;28;20026;-74
2022/11/01 10:56:46;;;;;;;13.73;2.30;;;;;;;16.22;100.00;101527.16;5202667;28;20021;-74
2022/11/01 10:59:23;;;;;;;;;;;;;;;16.37;100.00;101526.31;5202599;28;20021;-74
2022/11/01 11:01:54;;;;;;;11.10;1.92;;;;;;;16.38;100.00;101522.56;5202040;28;19917;-74
2022/11/01 11:04:25;;;;;;;11.35;1.90;;;;;;;16.56;100.00;101528.41;5202458;28;20048;-74
2022/11/01 11:06:56;;;;;;;13.20;2.17;;;;;;;16.41;100.00;101519.47;5200385;28;20140;-74
2022/11/01 11:09:33;;;;;;;14.18;2.45;;;;;;;16.56;100.00;101523.84;5202127;28;20646;-75
2022/11/01 11:12:14;;;;;;;14.02;1.95;;;;;;;16.65;100.00;101521.88;5202757;28;20508;-74
2022/11/01 11:14:53;;;;;;;11.35;1.98;;;;;;;16.77;100.00;101523.09;5202827;28;20036;-75
2022/11/01 11:17:43;;;;;;;8.23;1.80;;;;;;;16.74;100.00;101522.63;5201549;28;20048;-75
2022/11/01 11:20:20;;;;;;;12.68;2.55;;;;;;;16.71;100.00;101520.25;5202486;28;20427;-75
2022/11/01 11:22:51;;;;;;;12.60;2.80;;;;;;;16.63;100.00;101523.94;5202461;28;20028;-75
2022/11/01 11:25:32;;;;;;;11.48;2.00;;;;;;;16.73;100.00;101523.66;5201256;28;20488;-75
2022/11/01 11:28:03;;;;;;;12.00;2.40;;;;;;;16.76;100.00;101534.94;5201499;28;20417;-74
2022/11/01 11:30:34;;;;;;;16.17;3.20;;;;;;;16.68;100.00;101523.38;5202066;28;20035;-74
2022/11/01 11:33:05;;;;;;;10.60;1.88;;;;;;;16.56;100.00;101517.56;5202138;28;20108;-75
2022/11/01 11:35:37;;;;;;;10.57;2.47;;;;;;;16.64;100.00;101522.91;5202089;28;20023;-74
2022/11/01 11:38:13;;;;;;;8.68;1.75;;;;;;;16.71;100.00;101509.44;5200839;28;21347;-75
2022/11/01 11:40:44;;;;;;;12.98;2.38;;;;;;;16.77;100.00;101533.09;5202508;28;20022;-75
2022/11/01 11:43:27;;;;;;;8.80;1.77;;;;;;;16.75;100.00;101522.44;5202235;28;20064;-76
2022/11/01 11:46:17;;;;;;;8.95;1.60;;;;;;;16.85;100.00;101530.25;5189466;28;20026;-75
2022/11/01 11:48:57;;;;;;;9.50;1.88;;;;;;;16.68;100.00;101531.50;5201527;28;20021;-75
2022/11/01 11:51:30;;;;;;;9.35;1.98;;;;;;;16.66;100.00;101525.41;5202015;28;20033;-75
2022/11/01 11:54:23;;;;;;;10.40;1.80;;;;;;;16.54;100.00;101528.63;5201539;28;20075;-75
2022/11/01 11:57:20;;;;;;;13.95;1.92;;;;;;;16.61;100.00;101520.56;5201034;28;20025;-74
2022/11/01 11:59:57;;;;;;;14.93;2.10;;;;;;;16.52;100.00;101510.88;5201306;28;20822;-75